Time;durP1;ratioP1;P1;durP2;ratioP2;P2;SDS_P1;SDS_P2;PMS_P1;PMS_P2;Temp;Humidity;BMP_temperature;BMP_pressure;BME280_temperature;BME280_humidity;BME280_pressure;Samples;Min_cycle;Max_cycle;Signal;HPM_P1;HPM_P2
2022/08/02 00:02:33;;;;;;;;;10.25;10.25;;;;;;;;6488571;31;9109;-59
2022/08/02 00:08:36;;;;;;;;;8.75;8.50;;;;;;;;6488552;39;9000;-60
2022/08/02 00:14:38;;;;;;;;;8.75;8.75;;;;;;;;6488668;46;8964;-60
2022/08/02 00:20:40;;;;;;;;;9.50;9.50;;;;;;;;6488493;39;9002;-60
2022/08/02 00:26:42;;;;;;;;;12.25;12.25;;;;;;;;6488779;39;8882;-59
2022/08/02 00:32:46;;;;;;;;;10.33;10.33;;;;;;;;6488221;47;8855;-60
2022/08/02 00:38:51;;;;;;;;;15.33;12.67;;;;;;;;6488764;31;9016;-60
2022/08/02 00:44:53;;;;;;;;;12.00;12.00;;;;;;;;6487778;47;8915;-60
2022/08/02 00:50:56;;;;;;;;;13.50;13.25;;;;;;;;6488149;47;8881;-59
2022/08/02 00:57:04;;;;;;;;;16.67;15.33;;;;;;;;6487732;31;8878;-60
2022/08/02 01:03:07;;;;;;;;;15.33;15.33;;;;;;;;6487188;47;8904;-61
2022/08/02 01:09:10;;;;;;;;;16.75;15.75;;;;;;;;6487825;31;9074;-60
2022/08/02 01:15:13;;;;;;;;;14.75;13.50;;;;;;;;6487464;47;8921;-60
2022/08/02 01:21:37;;;;;;;;;15.33;14.67;;;;;;;;6490424;39;8870;-60
2022/08/02 01:27:52;;;;;;;;;15.25;14.75;;;;;;;;6489714;31;8865;-60
2022/08/02 01:34:12;;;;;;;;;14.25;14.25;;;;;;;;6490062;39;8924;-59
2022/08/02 01:40:29;;;;;;;;;12.33;12.33;;;;;;;;6488624;31;8909;-59
2022/08/02 01:46:33;;;;;;;;;17.00;14.33;;;;;;;;6489492;39;8905;-59
2022/08/02 01:52:41;;;;;;;;;13.25;12.25;;;;;;;;6490153;39;8845;-59
2022/08/02 01:58:55;;;;;;;;;14.00;14.00;;;;;;;;6489083;39;8903;-59
2022/08/02 02:04:59;;;;;;;;;17.33;16.33;;;;;;;;6489853;46;8869;-59
2022/08/02 02:11:06;;;;;;;;;18.50;13.75;;;;;;;;6489425;46;8911;-59
2022/08/02 02:17:31;;;;;;;;;15.67;14.00;;;;;;;;6490434;36;8850;-59
2022/08/02 02:23:54;;;;;;;;;14.00;14.00;;;;;;;;6489801;31;9079;-60
2022/08/02 02:29:59;;;;;;;;;14.00;14.00;;;;;;;;6489001;31;9704;-60
2022/08/02 02:36:02;;;;;;;;;17.67;17.67;;;;;;;;6488722;46;8993;-60
2022/08/02 02:42:09;;;;;;;;;16.67;16.67;;;;;;;;6488772;39;8927;-60
2022/08/02 02:48:14;;;;;;;;;15.00;15.00;;;;;;;;6489619;39;8923;-58
2022/08/02 02:54:18;;;;;;;;;16.75;15.50;;;;;;;;6489420;39;9635;-59
2022/08/02 03:06:59;;;;;;;;;16.67;15.33;;;;;;;;6506150;36;8901;-60
2022/08/02 03:13:02;;;;;;;;;16.33;14.33;;;;;;;;6488917;39;9070;-60
2022/08/02 03:19:04;;;;;;;;;13.00;13.00;;;;;;;;6489455;39;8933;-61
2022/08/02 03:25:07;;;;;;;;;18.00;15.33;;;;;;;;6487897;39;9525;-59
2022/08/02 03:31:11;;;;;;;;;17.00;17.00;;;;;;;;6489362;31;8983;-59
2022/08/02 03:37:14;;;;;;;;;17.25;16.50;;;;;;;;6488941;31;9577;-60
2022/08/02 03:43:19;;;;;;;;;16.67;16.33;;;;;;;;6488372;39;8905;-59
2022/08/02 03:49:24;;;;;;;;;13.00;11.00;;;;;;;;6489231;39;8872;-59
2022/08/02 03:55:26;;;;;;;;;14.25;14.25;;;;;;;;6490469;36;8869;-59
2022/08/02 04:01:47;;;;;;;;;14.67;13.67;;;;;;;;6470229;39;10237;31
2022/08/02 04:07:49;;;;;;;;;13.50;13.00;;;;;;;;6488146;39;9028;-63
2022/08/02 04:14:12;;;;;;;;;13.75;12.75;;;;;;;;6491231;39;8903;-63
